Summerville, Illinois
Current Conditions -  °F | °C
As of 12:50 PM on Friday 28 Nov 2014 (Local Time) from KALN Reporting Station
Clear Clear  
Wind Chill: 36°   Ceiling: Unl
Heat Index: 43°   Visibility: 10mi
Dew Point: 32°   Wind: 13mph
Humidity: 66%   Direction: 150°SSE
Pressure: 30.03"   Gusts: 24mph
Location:  39.2057°N, 90.1607°W
Report Text: KALN 281850Z 15011G21KT 10SM SKC 06/00 A3003
Loading
Personal Weather Stations






























Interactive Weather Map New forecast layout! Learn more

10-Day Weather Forecast

Advertisements
Track Severe Weather on mobile